.
WxDataArchive / Data Records for 2009-04-12
2009-04-11 April 2009 2009-04-13

Data Records for Sunday, 12 April 2009

Time	Temp	Chill	HIndex	Humid	Dewpt	 Wind 	HiWind	WindDir	Rain 	Barom 
-----	----	-----	------	-----	-----	------	------	-------	-----	----- 
00:00	39.3	39.3	39.3	57	25.4	0	0	---	0.00	30.340 
00:05	39.1	39.1	39.1	58	25.6	0	1	68	0.00	30.340 
00:10	38.6	38.6	38.6	59	25.5	0	0	---	0.00	30.340 
00:15	38.2	38.2	38.2	60	25.6	0	0	---	0.00	30.337 
00:20	37.8	37.8	37.8	61	25.6	0	0	---	0.00	30.337 
00:25	37.5	37.5	37.5	61	25.3	0	0	---	0.00	30.337 
00:30	37.3	37.3	37.3	62	25.5	0	0	---	0.00	30.346 
00:35	37.0	37.0	37.0	62	25.2	0	0	---	0.00	30.346 
00:40	36.6	36.6	36.6	62	24.8	0	0	---	0.00	30.346 
00:45	36.2	36.2	36.2	63	24.8	0	0	---	0.00	30.334 
00:50	35.9	35.9	35.9	65	25.3	0	0	---	0.00	30.334 
00:55	35.6	35.6	35.6	66	25.4	0	0	---	0.00	30.334 
01:00	35.5	35.5	35.5	66	25.3	0	0	---	0.00	30.323 
01:05	35.6	35.6	35.6	67	25.7	0	1	68	0.00	30.323 
01:10	35.9	35.9	35.9	66	25.7	0	1	68	0.00	30.323 
01:15	36.0	36.0	36.0	65	25.4	0	0	---	0.00	30.323 
01:20	36.2	36.2	36.2	65	25.6	0	0	---	0.00	30.323 
01:25	36.0	36.0	36.0	65	25.4	0	1	68	0.00	30.323 
01:30	36.0	36.0	36.0	65	25.4	0	0	---	0.00	30.324 
01:35	36.0	36.0	36.0	65	25.4	0	0	---	0.00	30.324 
01:40	35.9	35.9	35.9	65	25.3	0	0	---	0.00	30.324 
01:45	35.9	35.9	35.9	65	25.3	0	1	68	0.00	30.321 
01:50	35.9	35.9	35.9	65	25.3	0	0	---	0.00	30.321 
01:55	35.8	35.8	35.8	65	25.2	0	0	---	0.00	30.321 
02:00	35.6	35.6	35.6	66	25.4	0	0	---	0.00	30.322 
02:05	35.5	35.5	35.5	66	25.3	0	0	---	0.00	30.322 
02:10	35.3	35.3	35.3	66	25.1	0	0	---	0.00	30.322 
02:15	34.9	34.9	34.9	67	25.1	0	0	---	0.00	30.322 
02:20	34.6	34.6	34.6	68	25.1	0	0	---	0.00	30.322 
02:25	34.3	34.3	34.3	69	25.2	0	0	---	0.00	30.322 
02:30	34.0	34.0	34.0	69	24.9	0	0	---	0.00	30.335 
02:35	33.5	33.5	33.5	70	24.8	0	0	---	0.00	30.335 
02:40	33.2	33.2	33.2	70	24.5	0	0	---	0.00	30.335 
02:45	32.8	32.8	32.8	70	24.1	0	0	---	0.00	30.335 
02:50	32.5	32.5	32.5	72	24.5	0	0	---	0.00	30.335 
02:55	32.1	32.1	32.1	73	24.4	0	0	---	0.00	30.335 
03:00	31.9	31.9	31.9	74	24.6	0	0	---	0.00	30.342 
03:05	31.8	31.8	31.8	74	24.5	0	0	---	0.00	30.342 
03:10	31.5	31.5	31.5	75	24.5	0	0	---	0.00	30.342 
03:15	31.2	31.2	31.2	75	24.2	0	0	---	0.00	30.340 
03:20	30.9	30.9	30.9	76	24.2	0	0	---	0.00	30.340 
03:25	30.7	30.7	30.7	76	24.0	0	0	---	0.00	30.340 
03:30	30.4	30.4	30.4	77	24.1	0	0	---	0.00	30.343 
03:35	30.1	30.1	30.1	77	23.8	0	0	---	0.00	30.343 
03:40	30.0	30.0	30.0	78	24.0	0	0	---	0.00	30.343 
03:45	29.8	29.8	29.8	78	23.8	0	0	---	0.00	30.341 
03:50	29.7	29.7	29.7	79	24.0	0	0	---	0.00	30.341 
03:55	29.4	29.4	29.4	79	23.7	0	0	---	0.00	30.341 
04:00	29.3	29.3	29.3	80	23.9	0	0	---	0.00	30.345 
04:05	29.1	29.1	29.1	81	24.0	0	0	---	0.00	30.345 
04:10	29.0	29.0	29.0	82	24.2	0	0	---	0.00	30.345 
04:15	29.0	29.0	29.0	83	24.5	0	0	---	0.00	30.354 
04:20	29.1	29.1	29.1	84	24.9	0	1	68	0.00	30.354 
04:25	29.5	29.5	29.5	83	25.0	0	1	68	0.00	30.354 
04:30	30.3	30.3	30.3	80	24.9	0	2	68	0.00	30.353 
04:35	30.7	30.7	30.7	78	24.7	0	1	68	0.00	30.353 
04:40	31.0	31.0	31.0	77	24.7	0	0	---	0.00	30.353 
04:45	31.0	31.0	31.0	76	24.3	0	1	68	0.00	30.360 
04:50	31.5	31.5	31.5	74	24.2	0	1	68	0.00	30.360 
04:55	31.9	31.9	31.9	72	23.9	1	2	68	0.00	30.360 
05:00	32.4	32.4	32.4	70	23.7	0	2	90	0.00	30.366 
05:05	32.4	32.4	32.4	70	23.7	0	0	---	0.00	30.366 
05:10	32.2	32.2	32.2	70	23.5	0	0	---	0.00	30.366 
05:15	31.8	31.8	31.8	70	23.2	0	0	---	0.00	30.376 
05:20	31.3	31.3	31.3	70	22.7	0	0	---	0.00	30.376 
05:25	30.9	30.9	30.9	71	22.6	0	0	---	0.00	30.376 
05:30	30.4	30.4	30.4	72	22.5	0	0	---	0.00	30.370 
05:35	30.1	30.1	30.1	73	22.5	0	0	---	0.00	30.370 
05:40	30.0	30.0	30.0	73	22.4	0	0	---	0.00	30.370 
05:45	29.8	29.8	29.8	73	22.2	0	1	90	0.00	30.370 
05:50	30.0	30.0	30.0	73	22.4	0	1	90	0.00	30.370 
05:55	30.4	30.4	30.4	73	22.8	0	2	90	0.00	30.370 
06:00	31.0	31.0	31.0	71	22.7	1	2	90	0.00	30.357 
06:05	31.5	31.5	31.5	70	22.9	1	3	90	0.00	30.357 
06:10	31.6	31.6	31.6	69	22.6	0	2	90	0.00	30.357 
06:15	31.6	31.6	31.6	69	22.6	0	2	90	0.00	30.355 
06:20	31.6	31.6	31.6	69	22.6	1	2	90	0.00	30.355 
06:25	31.6	31.6	31.6	68	22.3	1	2	90	0.00	30.355 
06:30	31.6	31.6	31.6	68	22.3	1	4	90	0.00	30.362 
06:35	31.6	31.6	31.6	68	22.3	1	4	90	0.00	30.362 
06:40	31.6	31.6	31.6	68	22.3	1	4	90	0.00	30.362 
06:45	31.5	31.5	31.5	69	22.5	1	2	112	0.00	30.362 
06:50	31.5	31.5	31.5	68	22.2	2	4	90	0.00	30.362 
06:55	31.3	31.3	31.3	68	22.0	1	3	90	0.00	30.362 
07:00	31.3	31.3	31.3	69	22.3	1	3	90	0.00	30.370 
07:05	31.3	31.3	31.3	69	22.3	1	4	90	0.00	30.370 
07:10	31.5	31.5	31.5	69	22.5	2	4	90	0.00	30.370 
07:15	31.5	31.5	31.5	69	22.5	1	3	90	0.00	30.372 
07:20	31.6	31.6	31.6	70	23.0	1	3	112	0.00	30.372 
07:25	31.6	31.6	31.6	70	23.0	1	3	112	0.00	30.372 
07:30	31.8	31.8	31.8	70	23.2	1	3	90	0.00	30.384 
07:35	32.1	32.1	32.1	70	23.4	1	4	90	0.00	30.384 
07:40	32.2	32.2	32.2	70	23.5	2	5	90	0.00	30.384 
07:45	32.5	32.5	32.5	69	23.5	2	4	90	0.00	30.388 
07:50	32.8	32.8	32.8	69	23.8	2	4	90	0.00	30.388 
07:55	33.2	33.2	33.2	69	24.2	1	4	90	0.00	30.388 
08:00	33.7	33.7	33.7	68	24.3	2	4	90	0.00	30.401 
08:05	34.3	34.3	34.3	68	24.9	1	3	90	0.00	30.401 
08:10	34.7	34.7	34.7	65	24.2	2	6	90	0.00	30.401 
08:15	35.2	35.2	35.2	66	25.0	2	5	112	0.00	30.410 
08:20	35.6	35.6	35.6	65	25.0	2	4	112	0.00	30.410 
08:25	35.9	35.9	35.9	64	24.9	2	5	112	0.00	30.410 
08:30	36.3	36.3	36.3	64	25.3	2	4	112	0.00	30.419 
08:35	36.6	36.6	36.6	64	25.6	3	5	112	0.00	30.419 
08:40	37.0	37.0	37.0	63	25.6	2	5	112	0.00	30.419 
08:45	37.5	37.5	37.5	62	25.7	3	6	112	0.00	30.432 
08:50	37.6	37.6	37.6	62	25.8	3	6	112	0.00	30.432 
08:55	38.0	38.0	38.0	62	26.2	2	5	112	0.00	30.432 
09:00	38.5	38.5	38.5	60	25.8	3	6	112	0.00	30.438 
09:05	38.6	38.6	38.6	60	25.9	2	7	135	0.00	30.438 
09:10	38.6	38.6	38.6	60	25.9	3	6	90	0.00	30.438 
09:15	38.8	38.8	38.8	59	25.7	3	7	112	0.00	30.448 
09:20	39.1	39.1	39.1	60	26.4	3	9	90	0.00	30.448 
09:25	39.2	35.5	39.2	58	25.7	5	10	112	0.00	30.448 
09:30	39.2	35.5	39.2	59	26.1	5	9	112	0.00	30.447 
09:35	39.3	39.3	39.3	60	26.6	3	6	112	0.00	30.447 
09:40	39.9	37.2	39.9	59	26.7	4	8	90	0.00	30.447 
09:45	40.2	40.2	40.2	58	26.6	3	7	112	0.00	30.437 
09:50	40.6	38.0	40.6	56	26.1	4	10	90	0.00	30.437 
09:55	40.8	37.4	40.8	57	26.8	5	9	90	0.00	30.437 
10:00	40.8	38.2	40.8	58	27.2	4	8	112	0.00	30.432 
10:05	41.5	39.1	41.5	56	27.0	4	9	112	0.00	30.432 
10:10	41.8	39.4	41.8	56	27.3	4	9	112	0.00	30.432 
10:15	42.1	39.7	42.1	53	26.2	4	10	90	0.00	30.434 
10:20	41.9	39.5	41.9	54	26.5	4	9	90	0.00	30.434 
10:25	42.3	40.0	42.3	53	26.4	4	6	112	0.00	30.434 
10:30	42.9	42.9	42.9	53	27.0	3	6	112	0.00	30.433 
10:35	43.5	43.5	43.5	50	26.1	3	7	90	0.00	30.433 
10:40	43.8	41.7	43.8	49	25.9	4	8	112	0.00	30.433 
10:45	43.9	43.9	43.9	48	25.5	3	7	135	0.00	30.434 
10:50	44.1	42.1	44.1	48	25.7	4	10	90	0.00	30.434 
10:55	44.1	41.3	44.1	50	26.7	5	10	112	0.00	30.434 
11:00	44.3	42.3	44.3	45	24.3	4	10	112	0.00	30.440 
11:05	44.9	44.9	44.9	46	25.4	2	6	90	0.00	30.440 
11:10	45.2	43.3	45.2	43	24.0	4	9	112	0.00	30.440 
11:15	45.4	45.4	45.4	43	24.2	3	8	112	0.00	30.439 
11:20	45.5	45.5	45.5	43	24.3	3	9	112	0.00	30.439 
11:25	45.8	45.8	45.8	40	22.9	3	9	112	0.00	30.439 
11:30	46.1	46.1	46.1	43	24.9	2	9	112	0.00	30.439 
11:35	46.5	46.5	46.5	43	25.2	3	6	90	0.00	30.439 
11:40	46.7	45.1	46.7	41	24.3	4	11	112	0.00	30.439 
11:45	46.5	46.5	46.5	42	24.7	3	9	90	0.00	30.429 
11:50	47.0	47.0	47.0	39	23.3	3	9	90	0.00	30.429 
11:55	46.8	46.8	46.8	39	23.2	3	8	90	0.00	30.429 
12:00	47.6	46.1	47.6	42	25.7	4	9	112	0.00	30.423 
12:05	47.6	47.6	47.6	37	22.6	3	10	112	0.00	30.423 
12:10	47.4	45.2	47.4	41	24.9	5	10	112	0.00	30.423 
12:15	47.3	45.8	47.3	38	23.0	4	7	112	0.00	30.417 
12:20	47.6	47.6	47.6	43	26.2	3	6	90	0.00	30.417 
12:25	48.2	48.2	48.2	42	26.2	3	6	90	0.00	30.417 
12:30	48.6	48.6	48.6	39	24.8	3	6	112	0.00	30.403 
12:35	48.9	47.6	48.9	40	25.7	4	9	112	0.00	30.403 
12:40	48.2	46.1	48.2	40	25.0	5	12	112	0.00	30.403 
12:45	48.2	48.2	48.2	42	26.2	3	7	112	0.00	30.396 
12:50	49.1	49.1	49.1	41	26.4	3	11	112	0.00	30.396 
12:55	49.1	49.1	49.1	40	25.8	3	6	112	0.00	30.396 
13:00	49.4	49.4	49.4	39	25.5	3	11	112	0.00	30.385 
13:05	49.9	49.9	49.9	37	24.7	3	8	112	0.00	30.385 
13:10	50.1	50.1	50.1	36	24.2	4	12	90	0.00	30.385 
13:15	49.9	48.8	49.9	33	22.0	4	14	90	0.00	30.371 
13:20	49.6	48.4	49.6	39	25.7	4	14	112	0.00	30.371 
13:25	49.5	48.3	49.5	37	24.3	4	11	112	0.00	30.371 
13:30	49.5	47.6	49.5	39	25.6	5	11	112	0.00	30.362 
13:35	49.5	48.3	49.5	37	24.3	4	9	90	0.00	30.362 
13:40	49.9	48.1	49.9	39	25.9	5	11	112	0.00	30.362 
13:45	49.6	47.7	49.6	39	25.7	5	14	112	0.00	30.353 
13:50	49.9	48.8	49.9	37	24.7	4	12	112	0.00	30.353 
13:55	50.2	50.2	50.2	36	24.3	5	13	90	0.00	30.353 
14:00	50.2	50.2	50.2	36	24.3	4	13	112	0.00	30.343 
14:05	50.4	50.4	50.4	38	25.8	6	11	90	0.00	30.343 
14:10	50.5	50.5	50.5	36	24.6	5	12	112	0.00	30.343 
14:15	50.5	50.5	50.5	38	25.9	6	12	90	0.00	30.343 
14:20	50.5	50.5	50.5	36	24.6	5	9	112	0.00	30.343 
14:25	50.7	50.7	50.7	34	23.4	6	12	112	0.00	30.343 
14:30	50.4	50.4	50.4	35	23.8	8	14	90	0.00	30.353 
14:35	50.5	50.5	50.5	35	23.9	5	11	112	0.00	30.353 
14:40	51.0	51.0	51.0	35	24.3	5	11	90	0.00	30.353 
14:45	50.7	50.7	50.7	32	21.9	6	11	90	0.00	30.346 
14:50	51.0	51.0	51.0	35	24.3	4	10	112	0.00	30.346 
14:55	51.1	51.1	51.1	34	23.7	5	12	112	0.00	30.346 
15:00	51.3	51.3	51.3	33	23.2	6	12	90	0.00	30.350 
15:05	51.3	51.3	51.3	33	23.2	5	12	90	0.00	30.350 
15:10	52.0	52.0	52.0	34	24.5	4	12	112	0.00	30.350 
15:15	52.0	52.0	52.0	38	27.2	3	9	90	0.00	30.346 
15:20	52.5	52.5	52.5	31	22.8	4	11	90	0.00	30.346 
15:25	52.2	52.2	52.2	34	24.7	5	12	112	0.00	30.346 
15:30	52.0	52.0	52.0	33	23.8	4	11	112	0.00	30.338 
15:35	52.0	52.0	52.0	33	23.8	6	13	112	0.00	30.338 
15:40	52.0	52.0	52.0	32	23.1	6	13	90	0.00	30.338 
15:45	52.3	52.3	52.3	35	25.5	3	12	112	0.00	30.335 
15:50	52.8	52.8	52.8	37	27.3	3	7	112	0.00	30.335 
15:55	53.1	53.1	53.1	32	24.0	4	11	112	0.00	30.335 
16:00	53.2	53.2	53.2	35	26.3	3	11	112	0.00	30.326 
16:05	52.9	52.9	52.9	29	21.5	5	11	112	0.00	30.326 
16:10	52.8	52.8	52.8	32	23.8	5	12	112	0.00	30.326 
16:15	52.9	52.9	52.9	34	25.3	4	9	90	0.00	30.320 
16:20	53.1	53.1	53.1	33	24.8	3	7	112	0.00	30.320 
16:25	53.2	53.2	53.2	31	23.4	4	11	112	0.00	30.320 
16:30	53.1	53.1	53.1	31	23.3	4	10	90	0.00	30.316 
16:35	53.2	53.2	53.2	32	24.1	5	12	112	0.00	30.316 
16:40	52.9	52.9	52.9	33	24.6	7	14	112	0.00	30.316 
16:45	53.1	53.1	53.1	34	25.5	4	11	90	0.00	30.309 
16:50	53.2	53.2	53.2	33	24.9	5	10	112	0.00	30.309 
16:55	53.2	53.2	53.2	31	23.4	5	12	90	0.00	30.309 
17:00	53.3	53.3	53.3	30	22.7	5	11	90	0.00	30.306 
17:05	53.3	53.3	53.3	30	22.7	5	10	90	0.00	30.306 
17:10	53.1	53.1	53.1	30	22.5	5	13	112	0.00	30.306 
17:15	53.1	53.1	53.1	30	22.5	6	14	90	0.00	30.301 
17:20	52.9	52.9	52.9	33	24.6	5	12	90	0.00	30.301 
17:25	53.2	53.2	53.2	30	22.6	4	9	112	0.00	30.301 
17:30	53.1	53.1	53.1	32	24.0	5	14	90	0.00	30.300 
17:35	52.9	52.9	52.9	31	23.1	6	14	112	0.00	30.300 
17:40	52.9	52.9	52.9	31	23.1	5	11	90	0.00	30.300 
17:45	52.8	52.8	52.8	33	24.5	6	12	112	0.00	30.292 
17:50	52.8	52.8	52.8	32	23.8	5	14	112	0.00	30.292 
17:55	52.6	52.6	52.6	32	23.6	5	12	112	0.00	30.292 
18:00	52.5	52.5	52.5	33	24.2	5	13	112	0.00	30.291 
18:05	52.3	52.3	52.3	31	22.6	6	11	112	0.00	30.291 
18:10	51.9	51.9	51.9	31	22.2	7	14	112	0.00	30.291 
18:15	51.7	51.7	51.7	31	22.1	6	12	112	0.00	30.292 
18:20	51.4	51.4	51.4	31	21.8	7	14	112	0.00	30.292 
18:25	51.1	51.1	51.1	30	20.8	7	13	112	0.00	30.292 
18:30	50.8	50.8	50.8	30	20.5	6	13	112	0.00	30.292 
18:35	50.5	50.5	50.5	30	20.2	6	14	112	0.00	30.292 
18:40	50.4	50.4	50.4	29	19.4	7	16	112	0.00	30.292 
18:45	50.1	50.1	50.1	30	19.9	6	16	90	0.00	30.293 
18:50	49.8	47.4	49.8	27	17.2	6	13	112	0.00	30.293 
18:55	49.5	47.1	49.5	28	17.8	6	15	112	0.00	30.293 
19:00	49.2	46.2	49.2	27	16.7	7	13	112	0.00	30.293 
19:05	49.1	46.6	49.1	28	17.4	6	15	112	0.00	30.293 
19:10	48.8	46.2	48.8	27	16.3	6	15	112	0.00	30.293 
19:15	48.5	45.9	48.5	27	16.1	6	14	90	0.00	30.278 
19:20	48.3	45.1	48.3	27	15.9	7	16	112	0.00	30.278 
19:25	48.0	45.3	48.0	29	17.3	6	11	90	0.00	30.278 
19:30	47.7	44.9	47.7	28	16.2	6	13	90	0.00	30.281 
19:35	47.6	45.4	47.6	29	16.9	5	12	90	0.00	30.281 
19:40	47.3	44.5	47.3	29	16.7	6	13	90	0.00	30.281 
19:45	47.1	44.8	47.1	31	18.0	5	10	90	0.00	30.295 
19:50	47.0	45.4	47.0	31	18.0	4	7	112	0.00	30.295 
19:55	46.7	44.3	46.7	31	17.7	5	11	90	0.00	30.295 
20:00	46.4	44.7	46.4	32	18.2	4	8	112	0.00	30.299 
20:05	46.2	43.8	46.2	33	18.7	5	11	112	0.00	30.299 
20:10	46.0	44.2	46.0	34	19.2	4	7	112	0.00	30.299 
20:15	45.7	45.7	45.7	36	20.3	3	9	112	0.00	30.304 
20:20	45.4	45.4	45.4	37	20.7	3	6	112	0.00	30.304 
20:25	45.2	45.2	45.2	37	20.5	3	6	90	0.00	30.304 
20:30	44.9	42.2	44.9	37	20.2	5	10	112	0.00	30.304 
20:35	44.8	42.9	44.8	36	19.5	4	9	90	0.00	30.304 
20:40	44.5	42.5	44.5	37	19.9	4	11	112	0.00	30.304 
20:45	44.2	42.2	44.2	38	20.2	4	7	112	0.00	30.303 
20:50	43.9	41.8	43.9	38	20.0	4	12	90	0.00	30.303 
20:55	43.8	41.7	43.8	39	20.5	4	9	112	0.00	30.303 
21:00	43.6	41.5	43.6	38	19.7	4	12	112	0.00	30.301 
21:05	43.5	40.6	43.5	37	19.0	5	11	112	0.00	30.301 
21:10	43.3	40.3	43.3	37	18.8	5	12	112	0.00	30.301 
21:15	43.2	41.0	43.2	38	19.3	4	10	112	0.00	30.302 
21:20	43.1	40.9	43.1	38	19.2	4	7	90	0.00	30.302 
21:25	42.9	42.9	42.9	39	19.7	3	6	112	0.00	30.302 
21:30	42.8	42.8	42.8	39	19.6	3	5	112	0.00	30.305 
21:35	42.6	42.6	42.6	40	20.0	3	7	112	0.00	30.305 
21:40	42.5	40.2	42.5	41	20.5	4	10	90	0.00	30.305 
21:45	42.3	40.0	42.3	41	20.3	4	9	90	0.00	30.303 
21:50	42.2	39.9	42.2	42	20.8	4	7	90	0.00	30.303 
21:55	42.1	39.7	42.1	43	21.2	4	10	112	0.00	30.303 
22:00	41.9	41.9	41.9	43	21.1	3	9	90	0.00	30.302 
22:05	41.8	41.8	41.8	44	21.5	3	9	112	0.00	30.302 
22:10	41.6	41.6	41.6	45	21.9	3	8	112	0.00	30.302 
22:15	41.6	41.6	41.6	45	21.9	3	7	90	0.00	30.297 
22:20	41.6	39.2	41.6	45	21.9	4	9	90	0.00	30.297 
22:25	41.5	39.1	41.5	46	22.3	4	12	112	0.00	30.297 
22:30	41.3	38.8	41.3	46	22.1	4	9	90	0.00	30.290 
22:35	41.2	41.2	41.2	47	22.5	3	6	112	0.00	30.290 
22:40	41.1	37.8	41.1	47	22.4	5	11	112	0.00	30.290 
22:45	41.1	38.6	41.1	48	22.9	4	9	112	0.00	30.282 
22:50	41.1	37.8	41.1	47	22.4	5	14	112	0.00	30.282 
22:55	41.1	37.8	41.1	48	22.9	5	12	112	0.00	30.282 
23:00	40.9	38.4	40.9	48	22.7	4	9	90	0.00	30.275 
23:05	40.9	36.8	40.9	48	22.7	6	11	112	0.00	30.275 
23:10	40.8	37.4	40.8	48	22.6	5	11	90	0.00	30.275 
23:15	40.8	37.4	40.8	49	23.1	5	9	112	0.00	30.268 
23:20	40.6	36.5	40.6	49	23.0	6	12	90	0.00	30.268 
23:25	40.5	37.1	40.5	49	22.9	5	11	112	0.00	30.268 
23:30	40.3	37.7	40.3	50	23.2	4	10	112	0.00	30.257 
23:35	40.3	36.8	40.3	49	22.7	5	11	90	0.00	30.257 
23:40	40.1	36.6	40.1	48	22.0	5	13	90	0.00	30.257 
23:45	40.1	36.6	40.1	48	22.0	5	10	90	0.00	30.248 
23:50	39.9	35.6	39.9	48	21.8	6	11	112	0.00	30.248 
23:55	39.6	36.0	39.6	49	22.0	5	11	112	0.00	30.248 

CoCoRaHS
IN-AL-39
A2 Web Hosting
Creative Commons License
GoDaddy
search engine by freefind advanced

loaded 2018-11-15 03:14:00 • last modified 2010-11-18 10:43:29
Privacy PolicyDisclaimer
• wx.awcolley.com is powered by PmWiki v.2002016 •
• all content (unless otherwise noted) © 2018 A W Colley